sensor_id;sensor_type;location;lat;lon;timestamp;P1;durP1;ratioP1;P2;durP2;ratioP2
73585;SDS011;61865;50.232;18.614;2022-09-09T00:01:46;11.50;;;8.30;;
73585;SDS011;61865;50.232;18.614;2022-09-09T00:04:17;12.40;;;7.87;;
73585;SDS011;61865;50.232;18.614;2022-09-09T00:06:50;18.02;;;8.43;;
73585;SDS011;61865;50.232;18.614;2022-09-09T00:11:42;13.82;;;7.75;;
73585;SDS011;61865;50.232;18.614;2022-09-09T00:14:09;27.92;;;8.35;;
73585;SDS011;61865;50.232;18.614;2022-09-09T00:16:36;43.70;;;8.02;;
73585;SDS011;61865;50.232;18.614;2022-09-09T00:19:05;234.80;;;13.43;;
73585;SDS011;61865;50.232;18.614;2022-09-09T00:21:34;80.88;;;8.65;;
73585;SDS011;61865;50.232;18.614;2022-09-09T00:23:57;304.95;;;15.27;;
73585;SDS011;61865;50.232;18.614;2022-09-09T00:26:21;11.55;;;5.80;;
73585;SDS011;61865;50.232;18.614;2022-09-09T00:28:51;281.25;;;13.65;;
73585;SDS011;61865;50.232;18.614;2022-09-09T00:31:18;12.80;;;6.47;;
73585;SDS011;61865;50.232;18.614;2022-09-09T00:33:44;204.48;;;12.50;;
73585;SDS011;61865;50.232;18.614;2022-09-09T00:36:09;42.08;;;6.57;;
73585;SDS011;61865;50.232;18.614;2022-09-09T00:38:38;80.15;;;8.32;;
73585;SDS011;61865;50.232;18.614;2022-09-09T00:41:05;294.58;;;10.57;;
73585;SDS011;61865;50.232;18.614;2022-09-09T00:43:33;143.00;;;7.60;;
73585;SDS011;61865;50.232;18.614;2022-09-09T00:46:05;83.88;;;6.80;;
73585;SDS011;61865;50.232;18.614;2022-09-09T00:48:43;7.88;;;3.50;;
73585;SDS011;61865;50.232;18.614;2022-09-09T00:51:14;130.85;;;7.65;;
73585;SDS011;61865;50.232;18.614;2022-09-09T00:53:53;58.75;;;5.32;;
73585;SDS011;61865;50.232;18.614;2022-09-09T00:56:32;4.60;;;3.42;;
73585;SDS011;61865;50.232;18.614;2022-09-09T00:59:04;577.40;;;22.13;;
73585;SDS011;61865;50.232;18.614;2022-09-09T01:01:36;88.45;;;6.72;;
73585;SDS011;61865;50.232;18.614;2022-09-09T01:03:59;108.28;;;7.22;;
73585;SDS011;61865;50.232;18.614;2022-09-09T01:06:22;246.93;;;10.90;;
73585;SDS011;61865;50.232;18.614;2022-09-09T01:09:04;290.08;;;14.05;;
73585;SDS011;61865;50.232;18.614;2022-09-09T01:11:33;235.10;;;12.52;;
73585;SDS011;61865;50.232;18.614;2022-09-09T01:14:10;102.82;;;9.48;;
73585;SDS011;61865;50.232;18.614;2022-09-09T01:16:38;103.45;;;8.90;;
73585;SDS011;61865;50.232;18.614;2022-09-09T01:19:01;9.55;;;5.05;;
73585;SDS011;61865;50.232;18.614;2022-09-09T01:21:28;12.82;;;6.88;;
73585;SDS011;61865;50.232;18.614;2022-09-09T01:24:03;26.15;;;7.63;;
73585;SDS011;61865;50.232;18.614;2022-09-09T01:26:38;161.80;;;9.90;;
73585;SDS011;61865;50.232;18.614;2022-09-09T01:29:02;42.78;;;8.23;;
73585;SDS011;61865;50.232;18.614;2022-09-09T01:31:29;138.43;;;10.60;;
73585;SDS011;61865;50.232;18.614;2022-09-09T01:33:56;314.83;;;18.33;;
73585;SDS011;61865;50.232;18.614;2022-09-09T01:36:20;182.98;;;13.02;;
73585;SDS011;61865;50.232;18.614;2022-09-09T01:38:49;12.98;;;6.28;;
73585;SDS011;61865;50.232;18.614;2022-09-09T01:41:11;41.28;;;6.68;;
73585;SDS011;61865;50.232;18.614;2022-09-09T01:43:34;10.18;;;7.40;;
73585;SDS011;61865;50.232;18.614;2022-09-09T01:45:56;10.32;;;6.80;;
73585;SDS011;61865;50.232;18.614;2022-09-09T01:48:21;8.93;;;6.30;;
73585;SDS011;61865;50.232;18.614;2022-09-09T01:50:45;7.13;;;6.03;;
73585;SDS011;61865;50.232;18.614;2022-09-09T01:53:06;27.75;;;7.40;;
73585;SDS011;61865;50.232;18.614;2022-09-09T01:55:30;11.38;;;7.72;;
73585;SDS011;61865;50.232;18.614;2022-09-09T01:57:56;10.32;;;7.05;;
73585;SDS011;61865;50.232;18.614;2022-09-09T02:00:32;10.93;;;6.07;;
73585;SDS011;61865;50.232;18.614;2022-09-09T02:03:08;25.27;;;6.53;;
73585;SDS011;61865;50.232;18.614;2022-09-09T02:05:37;8.20;;;6.90;;
73585;SDS011;61865;50.232;18.614;2022-09-09T02:08:03;7.85;;;6.20;;
73585;SDS011;61865;50.232;18.614;2022-09-09T02:10:28;10.25;;;7.05;;
73585;SDS011;61865;50.232;18.614;2022-09-09T02:12:59;10.57;;;6.80;;
73585;SDS011;61865;50.232;18.614;2022-09-09T02:15:27;12.90;;;7.05;;
73585;SDS011;61865;50.232;18.614;2022-09-09T02:17:52;20.40;;;6.65;;
73585;SDS011;61865;50.232;18.614;2022-09-09T02:20:18;12.95;;;6.18;;
73585;SDS011;61865;50.232;18.614;2022-09-09T02:22:41;7.32;;;5.50;;
73585;SDS011;61865;50.232;18.614;2022-09-09T02:25:05;10.57;;;6.90;;
73585;SDS011;61865;50.232;18.614;2022-09-09T02:27:31;8.77;;;6.93;;
73585;SDS011;61865;50.232;18.614;2022-09-09T02:29:54;9.18;;;6.95;;
73585;SDS011;61865;50.232;18.614;2022-09-09T02:32:22;8.10;;;6.55;;
73585;SDS011;61865;50.232;18.614;2022-09-09T02:34:47;8.00;;;6.60;;
73585;SDS011;61865;50.232;18.614;2022-09-09T02:37:15;10.43;;;6.85;;
73585;SDS011;61865;50.232;18.614;2022-09-09T02:39:39;9.55;;;7.55;;
73585;SDS011;61865;50.232;18.614;2022-09-09T02:42:03;8.68;;;6.20;;
73585;SDS011;61865;50.232;18.614;2022-09-09T02:44:25;10.38;;;6.35;;
73585;SDS011;61865;50.232;18.614;2022-09-09T02:46:53;8.00;;;6.95;;
73585;SDS011;61865;50.232;18.614;2022-09-09T02:49:35;11.43;;;7.10;;
73585;SDS011;61865;50.232;18.614;2022-09-09T02:52:06;12.00;;;7.03;;
73585;SDS011;61865;50.232;18.614;2022-09-09T02:54:31;12.38;;;7.15;;
73585;SDS011;61865;50.232;18.614;2022-09-09T02:56:56;9.93;;;5.95;;
73585;SDS011;61865;50.232;18.614;2022-09-09T02:59:24;10.68;;;5.80;;
73585;SDS011;61865;50.232;18.614;2022-09-09T03:01:47;7.95;;;6.22;;
73585;SDS011;61865;50.232;18.614;2022-09-09T03:04:09;10.25;;;6.70;;
73585;SDS011;61865;50.232;18.614;2022-09-09T03:06:31;10.80;;;7.38;;
73585;SDS011;61865;50.232;18.614;2022-09-09T03:08:54;28.48;;;6.00;;
73585;SDS011;61865;50.232;18.614;2022-09-09T03:11:16;56.30;;;6.00;;
73585;SDS011;61865;50.232;18.614;2022-09-09T03:13:38;43.45;;;4.70;;
73585;SDS011;61865;50.232;18.614;2022-09-09T03:16:00;41.92;;;3.95;;
73585;SDS011;61865;50.232;18.614;2022-09-09T03:18:22;54.22;;;5.45;;
73585;SDS011;61865;50.232;18.614;2022-09-09T03:20:45;7.18;;;2.92;;
73585;SDS011;61865;50.232;18.614;2022-09-09T03:23:08;17.83;;;3.58;;
73585;SDS011;61865;50.232;18.614;2022-09-09T03:25:32;122.28;;;6.93;;
73585;SDS011;61865;50.232;18.614;2022-09-09T03:27:54;51.63;;;3.95;;
73585;SDS011;61865;50.232;18.614;2022-09-09T03:30:16;237.48;;;11.43;;
73585;SDS011;61865;50.232;18.614;2022-09-09T03:32:38;592.60;;;21.73;;
73585;SDS011;61865;50.232;18.614;2022-09-09T03:35:00;11.52;;;4.30;;
73585;SDS011;61865;50.232;18.614;2022-09-09T03:37:22;8.38;;;3.20;;
73585;SDS011;61865;50.232;18.614;2022-09-09T03:39:44;297.00;;;15.20;;
73585;SDS011;61865;50.232;18.614;2022-09-09T03:42:09;12.82;;;4.65;;
73585;SDS011;61865;50.232;18.614;2022-09-09T03:44:34;6.00;;;4.57;;
73585;SDS011;61865;50.232;18.614;2022-09-09T03:46:56;162.98;;;9.13;;
73585;SDS011;61865;50.232;18.614;2022-09-09T03:49:20;7.65;;;4.32;;
73585;SDS011;61865;50.232;18.614;2022-09-09T03:51:42;538.53;;;26.50;;
73585;SDS011;61865;50.232;18.614;2022-09-09T03:54:04;438.85;;;19.00;;
73585;SDS011;61865;50.232;18.614;2022-09-09T03:56:29;7.88;;;5.78;;
73585;SDS011;61865;50.232;18.614;2022-09-09T03:58:53;292.70;;;16.92;;
73585;SDS011;61865;50.232;18.614;2022-09-09T04:01:15;326.90;;;14.65;;
73585;SDS011;61865;50.232;18.614;2022-09-09T04:03:37;12.00;;;3.03;;
73585;SDS011;61865;50.232;18.614;2022-09-09T04:06:00;37.42;;;4.40;;
73585;SDS011;61865;50.232;18.614;2022-09-09T04:08:23;112.00;;;7.10;;
73585;SDS011;61865;50.232;18.614;2022-09-09T04:10:46;148.07;;;7.80;;
73585;SDS011;61865;50.232;18.614;2022-09-09T04:13:08;83.30;;;6.45;;
73585;SDS011;61865;50.232;18.614;2022-09-09T04:15:32;13.32;;;3.88;;
73585;SDS011;61865;50.232;18.614;2022-09-09T04:17:55;201.50;;;10.93;;
73585;SDS011;61865;50.232;18.614;2022-09-09T04:20:17;7.30;;;3.53;;
73585;SDS011;61865;50.232;18.614;2022-09-09T04:22:39;244.98;;;11.52;;
73585;SDS011;61865;50.232;18.614;2022-09-09T04:25:01;8.45;;;4.90;;
73585;SDS011;61865;50.232;18.614;2022-09-09T04:27:23;7.13;;;6.03;;
73585;SDS011;61865;50.232;18.614;2022-09-09T04:29:45;14.10;;;5.00;;
73585;SDS011;61865;50.232;18.614;2022-09-09T04:32:08;46.05;;;5.03;;
73585;SDS011;61865;50.232;18.614;2022-09-09T04:34:30;5.43;;;4.38;;
73585;SDS011;61865;50.232;18.614;2022-09-09T04:36:52;478.48;;;25.40;;
73585;SDS011;61865;50.232;18.614;2022-09-09T04:39:15;351.13;;;14.98;;
73585;SDS011;61865;50.232;18.614;2022-09-09T04:41:36;32.88;;;4.65;;
73585;SDS011;61865;50.232;18.614;2022-09-09T04:43:58;210.63;;;12.63;;
73585;SDS011;61865;50.232;18.614;2022-09-09T04:46:20;7.93;;;6.78;;
73585;SDS011;61865;50.232;18.614;2022-09-09T04:48:45;7.60;;;6.47;;
73585;SDS011;61865;50.232;18.614;2022-09-09T04:51:08;9.15;;;5.75;;
73585;SDS011;61865;50.232;18.614;2022-09-09T04:53:32;7.32;;;6.07;;
73585;SDS011;61865;50.232;18.614;2022-09-09T04:56:00;4.30;;;3.40;;
73585;SDS011;61865;50.232;18.614;2022-09-09T04:58:22;28.90;;;5.30;;
73585;SDS011;61865;50.232;18.614;2022-09-09T05:00:46;121.45;;;9.25;;
73585;SDS011;61865;50.232;18.614;2022-09-09T05:03:08;30.48;;;4.07;;
73585;SDS011;61865;50.232;18.614;2022-09-09T05:05:31;192.88;;;10.35;;
73585;SDS011;61865;50.232;18.614;2022-09-09T05:07:59;13.10;;;4.18;;
73585;SDS011;61865;50.232;18.614;2022-09-09T05:10:22;9.18;;;5.47;;
73585;SDS011;61865;50.232;18.614;2022-09-09T05:12:51;7.20;;;5.30;;
73585;SDS011;61865;50.232;18.614;2022-09-09T05:15:14;9.90;;;7.53;;
73585;SDS011;61865;50.232;18.614;2022-09-09T05:17:36;11.88;;;10.30;;
73585;SDS011;61865;50.232;18.614;2022-09-09T05:19:58;12.90;;;10.93;;
73585;SDS011;61865;50.232;18.614;2022-09-09T05:22:21;18.63;;;12.05;;
73585;SDS011;61865;50.232;18.614;2022-09-09T05:24:43;14.68;;;12.00;;
73585;SDS011;61865;50.232;18.614;2022-09-09T05:27:05;18.08;;;13.35;;
73585;SDS011;61865;50.232;18.614;2022-09-09T05:29:27;17.40;;;13.18;;
73585;SDS011;61865;50.232;18.614;2022-09-09T05:31:49;19.42;;;13.75;;
73585;SDS011;61865;50.232;18.614;2022-09-09T05:34:11;21.33;;;13.80;;
73585;SDS011;61865;50.232;18.614;2022-09-09T05:36:33;18.17;;;13.48;;
73585;SDS011;61865;50.232;18.614;2022-09-09T05:38:56;18.23;;;14.52;;
73585;SDS011;61865;50.232;18.614;2022-09-09T05:41:18;18.60;;;14.48;;
73585;SDS011;61865;50.232;18.614;2022-09-09T05:43:40;16.00;;;13.82;;
73585;SDS011;61865;50.232;18.614;2022-09-09T05:46:04;18.25;;;14.57;;
73585;SDS011;61865;50.232;18.614;2022-09-09T05:48:28;18.17;;;14.10;;
73585;SDS011;61865;50.232;18.614;2022-09-09T05:50:52;20.10;;;14.07;;
73585;SDS011;61865;50.232;18.614;2022-09-09T05:53:15;17.13;;;14.35;;
73585;SDS011;61865;50.232;18.614;2022-09-09T05:55:38;17.92;;;14.00;;
73585;SDS011;61865;50.232;18.614;2022-09-09T05:58:00;17.75;;;13.75;;
73585;SDS011;61865;50.232;18.614;2022-09-09T06:00:22;18.80;;;14.00;;
73585;SDS011;61865;50.232;18.614;2022-09-09T06:02:49;16.98;;;13.38;;
73585;SDS011;61865;50.232;18.614;2022-09-09T06:05:12;16.65;;;12.70;;
73585;SDS011;61865;50.232;18.614;2022-09-09T06:07:35;14.95;;;12.13;;
73585;SDS011;61865;50.232;18.614;2022-09-09T06:09:57;17.13;;;11.20;;
73585;SDS011;61865;50.232;18.614;2022-09-09T06:12:20;19.13;;;12.32;;
73585;SDS011;61865;50.232;18.614;2022-09-09T06:14:42;12.40;;;10.50;;
73585;SDS011;61865;50.232;18.614;2022-09-09T06:17:04;13.20;;;10.00;;
73585;SDS011;61865;50.232;18.614;2022-09-09T06:19:26;10.95;;;9.60;;
73585;SDS011;61865;50.232;18.614;2022-09-09T06:21:50;14.40;;;9.75;;
73585;SDS011;61865;50.232;18.614;2022-09-09T06:24:12;12.02;;;8.65;;
73585;SDS011;61865;50.232;18.614;2022-09-09T06:26:38;12.27;;;8.70;;
73585;SDS011;61865;50.232;18.614;2022-09-09T06:29:02;12.13;;;8.73;;
73585;SDS011;61865;50.232;18.614;2022-09-09T06:31:25;9.23;;;8.02;;
73585;SDS011;61865;50.232;18.614;2022-09-09T06:33:50;11.18;;;8.50;;
73585;SDS011;61865;50.232;18.614;2022-09-09T06:36:13;20.33;;;7.80;;
73585;SDS011;61865;50.232;18.614;2022-09-09T06:38:36;10.25;;;7.57;;
73585;SDS011;61865;50.232;18.614;2022-09-09T06:40:59;10.43;;;7.32;;
73585;SDS011;61865;50.232;18.614;2022-09-09T06:43:21;13.40;;;6.72;;
73585;SDS011;61865;50.232;18.614;2022-09-09T06:45:44;11.60;;;6.57;;
73585;SDS011;61865;50.232;18.614;2022-09-09T06:48:14;12.40;;;7.50;;
73585;SDS011;61865;50.232;18.614;2022-09-09T06:50:36;8.48;;;6.28;;
73585;SDS011;61865;50.232;18.614;2022-09-09T06:52:58;9.75;;;6.40;;
73585;SDS011;61865;50.232;18.614;2022-09-09T06:55:19;12.05;;;7.22;;
73585;SDS011;61865;50.232;18.614;2022-09-09T06:57:41;9.35;;;5.90;;
73585;SDS011;61865;50.232;18.614;2022-09-09T07:00:03;6.93;;;5.53;;
73585;SDS011;61865;50.232;18.614;2022-09-09T07:02:27;7.63;;;5.97;;
73585;SDS011;61865;50.232;18.614;2022-09-09T07:04:49;9.23;;;6.60;;
73585;SDS011;61865;50.232;18.614;2022-09-09T07:07:11;9.45;;;6.70;;
73585;SDS011;61865;50.232;18.614;2022-09-09T07:09:35;7.43;;;5.72;;
73585;SDS011;61865;50.232;18.614;2022-09-09T07:11:57;7.30;;;5.30;;
73585;SDS011;61865;50.232;18.614;2022-09-09T07:14:19;8.65;;;5.15;;
73585;SDS011;61865;50.232;18.614;2022-09-09T07:16:42;6.80;;;5.30;;
73585;SDS011;61865;50.232;18.614;2022-09-09T07:19:06;8.82;;;5.53;;
73585;SDS011;61865;50.232;18.614;2022-09-09T07:21:28;8.88;;;4.85;;
73585;SDS011;61865;50.232;18.614;2022-09-09T07:23:51;7.20;;;4.45;;
73585;SDS011;61865;50.232;18.614;2022-09-09T07:26:14;8.30;;;4.50;;
73585;SDS011;61865;50.232;18.614;2022-09-09T07:28:39;9.85;;;5.15;;
73585;SDS011;61865;50.232;18.614;2022-09-09T07:31:02;6.85;;;4.95;;
73585;SDS011;61865;50.232;18.614;2022-09-09T07:33:24;11.00;;;5.53;;
73585;SDS011;61865;50.232;18.614;2022-09-09T07:35:48;8.15;;;4.60;;
73585;SDS011;61865;50.232;18.614;2022-09-09T07:38:10;8.93;;;4.80;;
73585;SDS011;61865;50.232;18.614;2022-09-09T07:40:32;6.22;;;4.32;;
73585;SDS011;61865;50.232;18.614;2022-09-09T07:42:56;8.10;;;3.97;;
73585;SDS011;61865;50.232;18.614;2022-09-09T07:45:17;6.47;;;4.65;;
73585;SDS011;61865;50.232;18.614;2022-09-09T07:47:39;8.30;;;4.85;;
73585;SDS011;61865;50.232;18.614;2022-09-09T07:50:02;11.25;;;4.70;;
73585;SDS011;61865;50.232;18.614;2022-09-09T07:52:26;7.10;;;3.88;;
73585;SDS011;61865;50.232;18.614;2022-09-09T07:54:48;6.60;;;4.40;;
73585;SDS011;61865;50.232;18.614;2022-09-09T07:57:10;9.98;;;3.47;;
73585;SDS011;61865;50.232;18.614;2022-09-09T07:59:32;7.15;;;4.30;;
73585;SDS011;61865;50.232;18.614;2022-09-09T08:01:54;6.97;;;4.07;;
73585;SDS011;61865;50.232;18.614;2022-09-09T08:04:16;6.22;;;3.63;;
73585;SDS011;61865;50.232;18.614;2022-09-09T08:06:39;8.52;;;3.40;;
73585;SDS011;61865;50.232;18.614;2022-09-09T08:09:04;4.47;;;3.05;;
73585;SDS011;61865;50.232;18.614;2022-09-09T08:11:28;7.40;;;2.88;;
73585;SDS011;61865;50.232;18.614;2022-09-09T08:13:50;6.22;;;2.70;;
73585;SDS011;61865;50.232;18.614;2022-09-09T08:16:14;4.97;;;2.80;;
73585;SDS011;61865;50.232;18.614;2022-09-09T08:18:37;5.40;;;2.85;;
73585;SDS011;61865;50.232;18.614;2022-09-09T08:21:04;6.90;;;2.60;;
73585;SDS011;61865;50.232;18.614;2022-09-09T08:23:28;6.05;;;2.60;;
73585;SDS011;61865;50.232;18.614;2022-09-09T08:25:51;8.35;;;2.88;;
73585;SDS011;61865;50.232;18.614;2022-09-09T08:28:13;4.22;;;2.53;;
73585;SDS011;61865;50.232;18.614;2022-09-09T08:30:35;5.63;;;2.63;;
73585;SDS011;61865;50.232;18.614;2022-09-09T08:32:57;4.60;;;2.70;;
73585;SDS011;61865;50.232;18.614;2022-09-09T08:35:20;3.75;;;2.40;;
73585;SDS011;61865;50.232;18.614;2022-09-09T08:37:41;2.90;;;2.13;;
73585;SDS011;61865;50.232;18.614;2022-09-09T08:40:04;2.53;;;2.10;;
73585;SDS011;61865;50.232;18.614;2022-09-09T08:42:33;3.22;;;2.00;;
73585;SDS011;61865;50.232;18.614;2022-09-09T08:45:05;10.77;;;2.28;;
73585;SDS011;61865;50.232;18.614;2022-09-09T08:47:42;4.13;;;2.33;;
73585;SDS011;61865;50.232;18.614;2022-09-09T08:50:17;4.65;;;2.00;;
73585;SDS011;61865;50.232;18.614;2022-09-09T08:52:47;5.00;;;2.28;;
73585;SDS011;61865;50.232;18.614;2022-09-09T08:55:21;4.13;;;2.45;;
73585;SDS011;61865;50.232;18.614;2022-09-09T08:57:49;4.15;;;2.33;;
73585;SDS011;61865;50.232;18.614;2022-09-09T09:00:14;3.78;;;2.20;;
73585;SDS011;61865;50.232;18.614;2022-09-09T09:02:38;8.30;;;2.53;;
73585;SDS011;61865;50.232;18.614;2022-09-09T09:05:13;5.25;;;2.60;;
73585;SDS011;61865;50.232;18.614;2022-09-09T09:07:46;9.45;;;2.10;;
73585;SDS011;61865;50.232;18.614;2022-09-09T09:10:24;6.15;;;2.28;;
73585;SDS011;61865;50.232;18.614;2022-09-09T09:13:00;4.55;;;2.28;;
73585;SDS011;61865;50.232;18.614;2022-09-09T09:15:23;4.35;;;2.17;;
73585;SDS011;61865;50.232;18.614;2022-09-09T09:17:46;4.15;;;2.00;;
73585;SDS011;61865;50.232;18.614;2022-09-09T09:20:11;5.65;;;2.47;;
73585;SDS011;61865;50.232;18.614;2022-09-09T09:22:36;4.20;;;2.03;;
73585;SDS011;61865;50.232;18.614;2022-09-09T09:25:05;3.13;;;1.90;;
73585;SDS011;61865;50.232;18.614;2022-09-09T09:27:40;3.95;;;2.10;;
73585;SDS011;61865;50.232;18.614;2022-09-09T09:30:14;3.85;;;2.08;;
73585;SDS011;61865;50.232;18.614;2022-09-09T09:32:38;5.75;;;2.30;;
73585;SDS011;61865;50.232;18.614;2022-09-09T09:35:02;5.88;;;2.20;;
73585;SDS011;61865;50.232;18.614;2022-09-09T09:37:31;4.50;;;1.88;;
73585;SDS011;61865;50.232;18.614;2022-09-09T09:39:55;3.53;;;2.25;;
73585;SDS011;61865;50.232;18.614;2022-09-09T09:42:17;4.93;;;1.88;;
73585;SDS011;61865;50.232;18.614;2022-09-09T09:44:40;4.10;;;1.92;;
73585;SDS011;61865;50.232;18.614;2022-09-09T09:47:07;4.38;;;1.90;;
73585;SDS011;61865;50.232;18.614;2022-09-09T09:49:32;3.63;;;1.88;;
73585;SDS011;61865;50.232;18.614;2022-09-09T09:51:54;2.35;;;1.80;;
73585;SDS011;61865;50.232;18.614;2022-09-09T09:54:22;6.95;;;2.05;;
73585;SDS011;61865;50.232;18.614;2022-09-09T09:56:48;3.10;;;1.63;;
73585;SDS011;61865;50.232;18.614;2022-09-09T09:59:19;4.10;;;1.98;;
73585;SDS011;61865;50.232;18.614;2022-09-09T10:01:42;4.55;;;1.80;;
73585;SDS011;61865;50.232;18.614;2022-09-09T10:04:14;4.72;;;2.20;;
73585;SDS011;61865;50.232;18.614;2022-09-09T10:06:38;3.28;;;1.88;;
73585;SDS011;61865;50.232;18.614;2022-09-09T10:09:00;3.97;;;2.10;;
73585;SDS011;61865;50.232;18.614;2022-09-09T10:11:32;4.72;;;2.35;;
73585;SDS011;61865;50.232;18.614;2022-09-09T10:14:04;3.22;;;1.80;;
73585;SDS011;61865;50.232;18.614;2022-09-09T10:16:37;2.83;;;1.90;;
73585;SDS011;61865;50.232;18.614;2022-09-09T10:19:10;2.33;;;1.77;;
73585;SDS011;61865;50.232;18.614;2022-09-09T10:21:41;4.25;;;2.00;;
73585;SDS011;61865;50.232;18.614;2022-09-09T10:24:32;3.38;;;1.88;;
73585;SDS011;61865;50.232;18.614;2022-09-09T10:27:02;3.03;;;1.73;;
73585;SDS011;61865;50.232;18.614;2022-09-09T10:29:38;3.53;;;2.17;;
73585;SDS011;61865;50.232;18.614;2022-09-09T10:32:15;3.05;;;1.90;;
73585;SDS011;61865;50.232;18.614;2022-09-09T10:34:55;7.65;;;2.08;;
73585;SDS011;61865;50.232;18.614;2022-09-09T10:37:22;4.32;;;2.10;;
73585;SDS011;61865;50.232;18.614;2022-09-09T10:39:56;5.43;;;2.00;;
73585;SDS011;61865;50.232;18.614;2022-09-09T10:42:29;5.40;;;1.85;;
73585;SDS011;61865;50.232;18.614;2022-09-09T10:44:56;3.47;;;1.77;;
73585;SDS011;61865;50.232;18.614;2022-09-09T10:50:20;3.53;;;1.75;;
73585;SDS011;61865;50.232;18.614;2022-09-09T10:53:07;3.83;;;1.65;;
73585;SDS011;61865;50.232;18.614;2022-09-09T10:55:37;3.55;;;1.92;;
73585;SDS011;61865;50.232;18.614;2022-09-09T10:58:03;8.77;;;1.83;;
73585;SDS011;61865;50.232;18.614;2022-09-09T11:00:29;4.70;;;2.15;;
73585;SDS011;61865;50.232;18.614;2022-09-09T11:03:00;6.40;;;2.08;;
73585;SDS011;61865;50.232;18.614;2022-09-09T11:05:24;5.60;;;2.05;;
73585;SDS011;61865;50.232;18.614;2022-09-09T11:07:53;5.43;;;2.00;;
73585;SDS011;61865;50.232;18.614;2022-09-09T11:10:24;3.03;;;1.27;;
73585;SDS011;61865;50.232;18.614;2022-09-09T11:12:53;1.85;;;1.30;;
73585;SDS011;61865;50.232;18.614;2022-09-09T11:15:20;3.65;;;1.40;;
73585;SDS011;61865;50.232;18.614;2022-09-09T11:17:46;3.42;;;1.52;;
73585;SDS011;61865;50.232;18.614;2022-09-09T11:20:12;4.30;;;2.00;;
73585;SDS011;61865;50.232;18.614;2022-09-09T11:22:35;1.95;;;1.60;;
73585;SDS011;61865;50.232;18.614;2022-09-09T11:25:01;3.95;;;1.60;;
73585;SDS011;61865;50.232;18.614;2022-09-09T11:27:29;4.55;;;1.30;;
73585;SDS011;61865;50.232;18.614;2022-09-09T11:30:04;7.63;;;1.63;;
73585;SDS011;61865;50.232;18.614;2022-09-09T11:32:45;1.88;;;1.33;;
73585;SDS011;61865;50.232;18.614;2022-09-09T11:35:30;2.70;;;1.40;;
73585;SDS011;61865;50.232;18.614;2022-09-09T11:38:05;1.40;;;1.30;;
73585;SDS011;61865;50.232;18.614;2022-09-09T11:40:36;3.50;;;1.40;;
73585;SDS011;61865;50.232;18.614;2022-09-09T11:43:04;2.65;;;1.40;;
73585;SDS011;61865;50.232;18.614;2022-09-09T11:45:33;1.38;;;1.20;;
73585;SDS011;61865;50.232;18.614;2022-09-09T11:47:57;4.38;;;1.35;;
73585;SDS011;61865;50.232;18.614;2022-09-09T11:53:04;2.10;;;1.30;;
73585;SDS011;61865;50.232;18.614;2022-09-09T11:55:42;3.65;;;1.52;;
73585;SDS011;61865;50.232;18.614;2022-09-09T11:58:06;2.25;;;1.20;;
73585;SDS011;61865;50.232;18.614;2022-09-09T12:00:38;1.58;;;1.30;;
73585;SDS011;61865;50.232;18.614;2022-09-09T12:03:02;2.95;;;1.30;;
73585;SDS011;61865;50.232;18.614;2022-09-09T12:05:24;3.60;;;1.70;;
73585;SDS011;61865;50.232;18.614;2022-09-09T12:07:59;1.92;;;1.02;;
73585;SDS011;61865;50.232;18.614;2022-09-09T12:10:25;1.73;;;1.40;;
73585;SDS011;61865;50.232;18.614;2022-09-09T12:12:49;3.50;;;1.60;;
73585;SDS011;61865;50.232;18.614;2022-09-09T12:15:23;2.47;;;1.35;;
73585;SDS011;61865;50.232;18.614;2022-09-09T12:17:49;1.73;;;1.20;;
73585;SDS011;61865;50.232;18.614;2022-09-09T12:20:13;1.98;;;1.25;;
73585;SDS011;61865;50.232;18.614;2022-09-09T12:22:38;2.40;;;1.50;;
73585;SDS011;61865;50.232;18.614;2022-09-09T12:25:09;1.63;;;1.30;;
73585;SDS011;61865;50.232;18.614;2022-09-09T12:27:43;2.47;;;1.40;;
73585;SDS011;61865;50.232;18.614;2022-09-09T12:30:14;2.53;;;1.63;;
73585;SDS011;61865;50.232;18.614;2022-09-09T12:32:38;2.55;;;1.30;;
73585;SDS011;61865;50.232;18.614;2022-09-09T12:35:02;2.97;;;1.50;;
73585;SDS011;61865;50.232;18.614;2022-09-09T12:37:31;2.20;;;1.40;;
73585;SDS011;61865;50.232;18.614;2022-09-09T12:39:56;2.60;;;1.40;;
73585;SDS011;61865;50.232;18.614;2022-09-09T12:42:23;3.28;;;1.48;;
73585;SDS011;61865;50.232;18.614;2022-09-09T12:44:51;1.65;;;1.10;;
73585;SDS011;61865;50.232;18.614;2022-09-09T12:47:14;1.85;;;1.30;;
73585;SDS011;61865;50.232;18.614;2022-09-09T12:49:38;5.82;;;1.40;;
73585;SDS011;61865;50.232;18.614;2022-09-09T12:52:02;2.25;;;1.20;;
73585;SDS011;61865;50.232;18.614;2022-09-09T12:54:27;4.22;;;2.00;;
73585;SDS011;61865;50.232;18.614;2022-09-09T12:56:49;2.88;;;1.58;;
73585;SDS011;61865;50.232;18.614;2022-09-09T12:59:17;6.93;;;2.40;;
73585;SDS011;61865;50.232;18.614;2022-09-09T13:01:45;4.50;;;2.47;;
73585;SDS011;61865;50.232;18.614;2022-09-09T13:04:19;11.02;;;1.80;;
73585;SDS011;61865;50.232;18.614;2022-09-09T13:06:43;3.25;;;1.35;;
73585;SDS011;61865;50.232;18.614;2022-09-09T13:09:05;1.75;;;1.10;;
73585;SDS011;61865;50.232;18.614;2022-09-09T13:11:30;4.60;;;1.40;;
73585;SDS011;61865;50.232;18.614;2022-09-09T13:13:57;3.00;;;1.30;;
73585;SDS011;61865;50.232;18.614;2022-09-09T13:16:21;2.38;;;1.40;;
73585;SDS011;61865;50.232;18.614;2022-09-09T13:18:44;1.27;;;1.13;;
73585;SDS011;61865;50.232;18.614;2022-09-09T13:21:06;5.68;;;1.60;;
73585;SDS011;61865;50.232;18.614;2022-09-09T13:23:30;2.35;;;1.38;;
73585;SDS011;61865;50.232;18.614;2022-09-09T13:25:55;3.53;;;1.40;;
73585;SDS011;61865;50.232;18.614;2022-09-09T13:28:20;2.50;;;1.40;;
73585;SDS011;61865;50.232;18.614;2022-09-09T13:30:44;2.70;;;1.50;;
73585;SDS011;61865;50.232;18.614;2022-09-09T13:33:20;3.03;;;1.38;;
73585;SDS011;61865;50.232;18.614;2022-09-09T13:35:45;2.63;;;1.30;;
73585;SDS011;61865;50.232;18.614;2022-09-09T13:38:09;1.20;;;1.08;;
73585;SDS011;61865;50.232;18.614;2022-09-09T13:40:32;4.70;;;1.48;;
73585;SDS011;61865;50.232;18.614;2022-09-09T13:42:55;4.43;;;1.60;;
73585;SDS011;61865;50.232;18.614;2022-09-09T13:45:18;3.55;;;1.45;;
73585;SDS011;61865;50.232;18.614;2022-09-09T13:47:41;2.60;;;1.40;;
73585;SDS011;61865;50.232;18.614;2022-09-09T13:50:14;2.35;;;1.45;;
73585;SDS011;61865;50.232;18.614;2022-09-09T13:52:40;1.92;;;1.35;;
73585;SDS011;61865;50.232;18.614;2022-09-09T13:55:02;3.03;;;1.50;;
73585;SDS011;61865;50.232;18.614;2022-09-09T13:57:26;4.15;;;1.50;;
73585;SDS011;61865;50.232;18.614;2022-09-09T13:59:48;3.30;;;1.70;;
73585;SDS011;61865;50.232;18.614;2022-09-09T14:02:10;5.18;;;2.05;;
73585;SDS011;61865;50.232;18.614;2022-09-09T14:04:32;3.75;;;1.60;;
73585;SDS011;61865;50.232;18.614;2022-09-09T14:06:55;4.65;;;1.67;;
73585;SDS011;61865;50.232;18.614;2022-09-09T14:09:18;3.30;;;1.48;;
73585;SDS011;61865;50.232;18.614;2022-09-09T14:11:40;3.08;;;1.50;;
73585;SDS011;61865;50.232;18.614;2022-09-09T14:14:04;2.28;;;1.40;;
73585;SDS011;61865;50.232;18.614;2022-09-09T14:16:26;1.48;;;1.25;;
73585;SDS011;61865;50.232;18.614;2022-09-09T14:18:48;3.08;;;1.63;;
73585;SDS011;61865;50.232;18.614;2022-09-09T14:21:10;2.25;;;1.48;;
73585;SDS011;61865;50.232;18.614;2022-09-09T14:23:33;2.33;;;1.35;;
73585;SDS011;61865;50.232;18.614;2022-09-09T14:25:55;4.63;;;1.75;;